Darien, WI

3:40 PM CDT on September 01, 2014 (GMT -0500)
Country Club Estates | Change Station
CLOSE
Current Station
Personal Weather Station
Location: Fontana-on-Geneva Lake, WI
Elevation: 1056 ft
Nearby Weather Stations

Elev 1056 ft 42.54 °N, 88.57 °W | Updated 3 minutes ago

Mostly Cloudy
Mostly Cloudy
80.1 °F
Feels Like 82 °F
N
5.3
Wind Variable Wind from WNW

Today
High -- | Low -- °F
--% Chance of Precip.
Yesterday
High -- | Low -- °F
Precip. -- in
6:19 AM 7:29 PM
Waxing Crescent, 44% visible
Pressure 29.73 in
Visibility 10.0 miles
Clouds Mostly Cloudy 3200 ft
Mostly Cloudy 3700 ft
Heat Index 82 °F
Dew Point 67 °F
Humidity 64%
Rainfall 0.00 in
Snow Depth Not available.
UV 4 out of 12
Pollen 6.30 out of 12
Air Quality Not available.
Flu Activity Not available.
METAR KJVL 011945Z 25010G15KT 10SM BKN032 BKN037 27/18 A2973

More Conditions Fewer Conditions

Pressure 29.73 in
Visibility 10.0 miles
Clouds Mostly Cloudy 3200 ft
Mostly Cloudy 3700 ft
Heat Index 82 °F
Dew Point 67 °F
Humidity 64%
Rainfall 0.00 in
Snow Depth Not available.
UV 4 out of 12
Pollen 6.30 out of 12
Air Quality Not available.
Flu Activity Not available.
METAR KJVL 011945Z 25010G15KT 10SM BKN032 BKN037 27/18 A2973

More Conditions Fewer Conditions

10-Day Weather Forecast

Almanac

Astronomy

Sep. 01, 2014 Rise Set
Actual Time 6:19 AM CDT 7:29 PM CDT
Civil Twilight 5:50 AM CDT 7:57 PM CDT
Nautical Twilight 5:15 AM CDT 8:32 PM CDT
Astronomical Twilight 4:39 AM CDT 9:08 PM CDT
Moon 1:14 PM CDT 11:21 PM CDT
Length of Visible Light 14h 07m
Length of Day
13h 09m
Tomorrow will be 2m 46s shorter.
Waxing Crescent, 44% of the Moon is Illuminated
Today
Waxing Crescent
Sep 2
First Quarter
Sep 8
Full
Sep 15
Last Quarter
Sep 24
New

Today's Extremes

State Highs State Lows

Community

WunderPhotos

Upload Photos

1,749,404 photos uploaded!

WunderBlogs® & News

Nearby

Snow Depth

Station Depth Elevation
No new snow has been reported.

Earthquake Activity

City Distance Mag. Time & Date
No recent earthquake activity has been reported nearby.
Minimum magnitude displayed is 2.5.

Coastal Water Temperatures

Place Temperature
No Stations Reporting

Nearby Weather Stations